Time;durP1;ratioP1;P1;durP2;ratioP2;P2;SDS_P1;SDS_P2;PMS_P1;PMS_P2;Temp;Humidity;BMP_temperature;BMP_pressure;BME280_temperature;BME280_humidity;BME280_pressure;Samples;Min_cycle;Max_cycle;Signal;HPM_P1;HPM_P2
2021/04/13 00:02:13;;;;;;;6.75;3.95;;;;;;;2.16;70.90;100001.09;114450;1192;64455;-78
2021/04/13 00:04:42;;;;;;;6.43;3.70;;;;;;;2.19;70.60;99998.41;114607;1193;64358;-79
2021/04/13 00:07:10;;;;;;;5.55;3.60;;;;;;;2.20;70.26;100002.77;114249;1192;64347;-80
2021/04/13 00:09:39;;;;;;;9.63;3.30;;;;;;;2.23;70.58;100005.36;114267;1192;64557;-82
2021/04/13 00:12:10;;;;;;;6.07;3.00;;;;;;;2.26;70.63;100001.77;114293;1193;64375;-80
2021/04/13 00:14:41;;;;;;;8.05;3.90;;;;;;;2.30;70.69;100008.72;114269;1193;64432;-84
2021/04/13 00:17:12;;;;;;;4.90;2.90;;;;;;;2.30;70.41;100004.31;114241;1193;64375;-79
2021/04/13 00:19:43;;;;;;;9.00;3.30;;;;;;;2.32;70.30;99994.59;114342;1193;64468;-82
2021/04/13 00:22:10;;;;;;;7.97;2.33;;;;;;;2.34;70.58;100008.58;114225;1193;64429;-80
2021/04/13 00:24:37;;;;;;;7.30;3.40;;;;;;;2.31;70.32;100008.67;114280;1193;64467;-84
2021/04/13 00:27:04;;;;;;;7.07;3.70;;;;;;;2.29;70.58;100009.59;114243;1193;64343;-80
2021/04/13 00:29:32;;;;;;;7.43;3.77;;;;;;;2.28;70.62;100003.45;114224;1193;64429;-79
2021/04/13 00:32:02;;;;;;;6.63;3.40;;;;;;;2.28;70.38;100003.45;114252;1193;64397;-81
2021/04/13 00:34:40;;;;;;;8.23;3.10;;;;;;;2.26;70.36;99999.13;114308;1193;64429;-78
2021/04/13 00:37:25;;;;;;;8.13;3.80;;;;;;;2.25;69.99;99994.77;114304;1193;64362;-83
2021/04/13 00:39:54;;;;;;;7.73;2.23;;;;;;;2.25;70.43;99993.00;114301;1193;64500;-80
2021/04/13 00:42:28;;;;;;;5.13;2.40;;;;;;;2.26;70.40;99994.73;114255;1193;64516;-80
2021/04/13 00:45:17;;;;;;;4.10;2.10;;;;;;;2.25;70.18;100000.04;114260;1192;64365;-84
2021/04/13 00:47:46;;;;;;;4.40;2.60;;;;;;;2.24;70.12;99999.17;114204;1192;64397;-79
2021/04/13 00:50:31;;;;;;;5.80;3.00;;;;;;;2.21;70.09;99996.59;114230;1193;64368;-79
2021/04/13 00:53:01;;;;;;;14.80;5.53;;;;;;;2.20;70.04;100004.55;114332;1193;64417;-83
2021/04/13 00:55:34;;;;;;;6.77;3.77;;;;;;;2.22;69.99;100002.73;114246;1193;64403;-79
2021/04/13 00:58:07;;;;;;;4.47;2.87;;;;;;;2.26;70.33;100000.00;114273;1193;64423;-80
2021/04/13 01:00:40;;;;;;;7.45;3.00;;;;;;;2.31;69.64;99997.27;114256;1193;64465;-79
2021/04/13 01:03:10;;;;;;;7.90;3.37;;;;;;;2.30;69.93;100001.67;114337;1193;64723;-79
2021/04/13 01:05:40;;;;;;;9.80;3.10;;;;;;;2.29;70.19;99999.94;114312;1193;64343;-83
2021/04/13 01:08:36;;;;;;;7.97;3.53;;;;;;;2.29;69.87;100002.58;114303;1193;64385;-80
2021/04/13 01:11:23;;;;;;;5.27;3.47;;;;;;;2.30;69.83;100000.80;114339;1193;64349;-80
2021/04/13 01:13:51;;;;;;;4.50;2.90;;;;;;;2.31;69.48;99998.13;114242;1193;64503;-83
2021/04/13 01:16:22;;;;;;;5.93;3.20;;;;;;;2.30;70.00;99999.03;114292;1193;64382;-81
2021/04/13 01:18:55;;;;;;;6.90;3.33;;;;;;;2.29;69.62;100002.58;114241;1193;64407;-81
2021/04/13 01:21:42;;;;;;;12.33;4.20;;;;;;;2.27;69.88;99995.59;114251;1193;64825;-81
2021/04/13 01:24:14;;;;;;;14.57;4.57;;;;;;;2.24;70.17;99999.17;114258;1193;64364;-81
2021/04/13 01:26:45;;;;;;;7.40;3.45;;;;;;;2.26;70.22;99996.50;114250;1193;64369;-83
2021/04/13 01:29:15;;;;;;;7.40;2.87;;;;;;;2.26;69.92;100000.00;114218;1193;64458;-81
2021/04/13 01:31:47;;;;;;;7.55;3.00;;;;;;;2.25;69.82;100000.91;114334;1193;64401;-79
2021/04/13 01:34:48;;;;;;;8.80;3.40;;;;;;;2.24;70.24;99996.54;114265;1193;64398;-78
2021/04/13 01:40:17;;;;;;;12.17;3.50;;;;;;;2.19;69.91;100000.18;114280;1193;64503;-80
2021/04/13 01:42:45;;;;;;;4.20;2.80;;;;;;;2.15;70.03;100002.00;114344;1193;64483;-80
2021/04/13 01:45:15;;;;;;;7.90;3.13;;;;;;;2.14;70.10;100000.28;114300;1193;64496;-82
2021/04/13 01:47:43;;;;;;;11.03;3.60;;;;;;;2.15;70.19;100002.00;114281;1193;64474;-81
2021/04/13 01:50:22;;;;;;;8.47;3.27;;;;;;;2.18;70.64;100009.86;114280;1193;64356;-82
2021/04/13 01:52:52;;;;;;;6.45;3.15;;;;;;;2.22;70.68;100005.36;114367;1193;64487;-79
2021/04/13 01:55:24;;;;;;;9.65;4.10;;;;;;;2.20;70.28;100000.14;114334;1193;64464;-80
2021/04/13 01:57:56;;;;;;;8.27;3.20;;;;;;;2.16;70.27;100009.00;114323;1193;64353;-83
2021/04/13 02:00:38;;;;;;;9.90;3.87;;;;;;;2.15;70.53;100002.88;114338;1193;64298;-79
2021/04/13 02:03:13;;;;;;;13.13;3.80;;;;;;;2.16;70.03;99999.36;114241;1193;64397;-82
2021/04/13 02:05:46;;;;;;;9.37;3.27;;;;;;;2.20;70.47;100004.55;114291;1193;64385;-79
2021/04/13 02:08:26;;;;;;;8.05;3.50;;;;;;;2.20;70.58;99997.50;114210;1193;64369;-82
2021/04/13 02:11:11;;;;;;;6.30;3.05;;;;;;;2.22;70.37;99997.46;114232;1193;64295;-82
2021/04/13 02:13:59;;;;;;;13.50;3.75;;;;;;;2.22;70.45;99992.19;114241;1193;64295;-80
2021/04/13 02:16:37;;;;;;;9.07;3.20;;;;;;;2.20;70.12;99994.87;114209;1193;64356;-83
2021/04/13 02:19:10;;;;;;;9.20;3.40;;;;;;;2.18;70.13;99991.41;114243;1193;64365;-79
2021/04/13 02:21:39;;;;;;;11.15;3.00;;;;;;;2.16;70.04;99993.19;114276;1193;64369;-82
2021/04/13 02:24:10;;;;;;;11.35;3.45;;;;;;;2.18;70.09;99994.05;114214;1193;64308;-83
2021/04/13 02:26:59;;;;;;;10.85;2.60;;;;;;;2.23;70.39;99994.81;114274;1193;64432;-83
2021/04/13 02:29:35;;;;;;;16.67;3.67;;;;;;;2.26;70.05;99986.82;114251;1193;64401;-81
2021/04/13 02:32:18;;;;;;;6.55;2.80;;;;;;;2.28;70.57;99986.78;114228;1193;64468;-79
2021/04/13 02:34:51;;;;;;;10.13;3.13;;;;;;;2.25;69.98;99986.86;114250;1193;64461;-80
2021/04/13 02:37:27;;;;;;;12.93;3.70;;;;;;;2.20;70.43;99996.64;114248;1193;64375;-80
2021/04/13 02:39:55;;;;;;;10.00;3.60;;;;;;;2.13;70.14;99988.01;114606;1193;64347;-79
2021/04/13 02:42:25;;;;;;;12.30;3.63;;;;;;;2.08;70.27;99981.97;114243;1193;64356;-81
2021/04/13 02:45:05;;;;;;;7.63;3.50;;;;;;;2.03;70.50;99987.34;114361;1193;64503;-79
2021/04/13 02:47:41;;;;;;;7.67;3.40;;;;;;;2.01;70.65;99983.02;114206;1193;64439;-80
2021/04/13 02:50:09;;;;;;;13.33;3.80;;;;;;;2.01;70.33;99989.14;114237;1193;64282;-82
2021/04/13 02:52:42;;;;;;;7.75;3.80;;;;;;;1.99;70.33;99985.69;114280;1193;64382;-84
2021/04/13 02:55:13;;;;;;;9.35;5.25;;;;;;;1.99;71.10;99988.33;114303;1192;64423;-79
2021/04/13 02:57:44;;;;;;;9.47;4.47;;;;;;;1.97;70.62;99984.84;114317;1193;64477;-79
2021/04/13 03:00:29;;;;;;;6.17;3.53;;;;;;;1.92;70.39;99978.83;114321;1193;64429;-80
2021/04/13 03:02:58;;;;;;;9.15;4.80;;;;;;;1.88;70.50;99977.16;114313;1193;64464;-83
2021/04/13 03:05:28;;;;;;;7.87;3.70;;;;;;;1.84;70.72;99981.61;114353;1193;64292;-81
2021/04/13 03:08:05;;;;;;;7.25;3.60;;;;;;;1.83;70.91;99977.25;114239;1193;64305;-83
2021/04/13 03:10:36;;;;;;;5.63;3.57;;;;;;;1.82;70.88;99977.28;114278;1193;64480;-82
2021/04/13 03:13:10;;;;;;;14.85;4.45;;;;;;;1.82;70.55;99980.78;114282;1193;64359;-82
2021/04/13 03:15:40;;;;;;;6.43;4.13;;;;;;;1.81;70.94;99976.42;114272;1193;64392;-83
2021/04/13 03:18:18;;;;;;;11.45;4.30;;;;;;;1.83;70.87;99971.98;114219;1193;64378;-81
2021/04/13 03:20:48;;;;;;;9.20;4.47;;;;;;;1.84;70.83;99976.34;114383;1192;64365;-79
2021/04/13 03:23:18;;;;;;;9.55;5.60;;;;;;;1.83;70.69;99979.88;114262;1193;64366;-83
2021/04/13 03:25:53;;;;;;;9.90;5.10;;;;;;;1.84;70.55;99981.61;114297;1193;64311;-80
2021/04/13 03:28:28;;;;;;;8.93;4.25;;;;;;;1.84;70.63;99981.61;114280;1193;64369;-79
2021/04/13 03:30:55;;;;;;;10.67;4.47;;;;;;;1.86;71.04;99982.46;114350;1193;64375;-79
2021/04/13 03:33:30;;;;;;;9.10;4.30;;;;;;;1.88;71.13;99985.92;114323;1193;64369;-81
2021/04/13 03:36:23;;;;;;;15.27;4.40;;;;;;;1.94;70.96;99991.96;114235;1193;64461;-85
2021/04/13 03:39:01;;;;;;;7.37;4.47;;;;;;;1.96;71.21;99982.25;114355;1192;65831;-79
2021/04/13 03:41:29;;;;;;;11.47;4.43;;;;;;;1.99;71.08;99988.33;114270;1193;64359;-79
2021/04/13 03:44:00;;;;;;;11.30;4.70;;;;;;;1.97;70.48;99982.20;114323;1193;64374;-83
2021/04/13 03:46:32;;;;;;;10.67;5.17;;;;;;;1.95;71.01;99991.91;114271;1192;64430;-85
2021/04/13 03:49:01;;;;;;;8.17;4.90;;;;;;;1.94;70.81;99984.05;114289;1193;64765;-80
2021/04/13 03:51:35;;;;;;;10.40;3.80;;;;;;;1.94;70.82;99997.23;114350;1193;64320;-83
2021/04/13 03:54:27;;;;;;;9.67;4.83;;;;;;;1.93;70.95;99996.36;114304;1193;64369;-81
2021/04/13 03:56:56;;;;;;;16.60;5.37;;;;;;;1.95;70.31;99989.28;114221;1193;64315;-81
2021/04/13 03:59:26;;;;;;;11.07;4.97;;;;;;;1.95;70.91;99996.33;114261;1193;64420;-81
2021/04/13 04:01:53;;;;;;;11.83;6.10;;;;;;;1.95;70.95;99999.82;114273;1192;64854;-84
2021/04/13 04:04:30;;;;;;;14.90;5.53;;;;;;;1.93;70.61;100006.91;114421;1193;64426;-78
2021/04/13 04:07:04;;;;;;;10.20;5.13;;;;;;;1.93;70.38;100020.07;114265;1193;64439;-81
2021/04/13 04:09:31;;;;;;;13.30;5.63;;;;;;;1.94;70.83;100010.40;114314;1193;64428;-80
2021/04/13 04:12:14;;;;;;;16.27;4.97;;;;;;;1.97;70.83;100013.81;114301;1193;64318;-86
2021/04/13 04:14:53;;;;;;;8.90;4.77;;;;;;;2.00;70.40;100007.63;114176;1193;64397;-80
2021/04/13 04:17:21;;;;;;;13.40;5.80;;;;;;;2.02;71.21;100011.09;114213;1192;64366;-79
2021/04/13 04:20:03;;;;;;;9.43;5.03;;;;;;;2.02;70.95;100016.36;114307;1193;64451;-79
2021/04/13 04:22:30;;;;;;;10.23;5.77;;;;;;;2.02;71.38;100017.22;114285;1193;64406;-81
2021/04/13 04:25:16;;;;;;;13.80;6.25;;;;;;;2.02;70.59;100016.36;114271;1193;64410;-81
2021/04/13 04:27:45;;;;;;;12.23;6.23;;;;;;;2.05;70.70;100025.08;114233;1193;64503;-78
2021/04/13 04:30:32;;;;;;;16.40;6.57;;;;;;;2.10;70.54;100028.48;114805;1192;64526;-80
2021/04/13 04:33:01;;;;;;;15.20;6.40;;;;;;;2.20;70.83;100031.77;114297;1193;64323;-83
2021/04/13 04:35:33;;;;;;;14.10;5.87;;;;;;;2.28;70.58;100026.31;114264;1193;64292;-79
2021/04/13 04:38:39;;;;;;;11.17;6.43;;;;;;;2.37;70.68;100024.34;114335;1193;64330;-83
2021/04/13 04:41:08;;;;;;;14.55;6.95;;;;;;;2.47;70.64;100024.12;114275;1193;66001;-79
2021/04/13 04:43:40;;;;;;;12.47;5.47;;;;;;;2.48;70.70;100024.07;114312;1193;64365;-80
2021/04/13 04:46:07;;;;;;;13.90;6.80;;;;;;;2.52;70.27;100030.16;114329;1193;64403;-78
2021/04/13 04:48:36;;;;;;;10.65;6.00;;;;;;;2.53;70.46;100024.83;114252;1193;64457;-80
2021/04/13 04:51:14;;;;;;;13.67;5.27;;;;;;;2.57;70.70;100025.64;114202;1193;64369;-82
2021/04/13 04:53:42;;;;;;;13.60;5.60;;;;;;;2.57;70.65;100025.64;114231;1193;64542;-80
2021/04/13 04:56:11;;;;;;;15.50;5.97;;;;;;;2.58;70.73;100037.92;114284;1193;64430;-79
2021/04/13 04:58:38;;;;;;;12.30;6.60;;;;;;;2.61;70.43;100032.59;114276;1193;64356;-80
2021/04/13 05:01:05;;;;;;;10.50;6.10;;;;;;;2.64;70.03;100032.50;114276;1193;64297;-81
2021/04/13 05:03:32;;;;;;;12.80;5.83;;;;;;;2.70;70.66;100038.48;114622;1192;64327;-81
2021/04/13 05:05:59;;;;;;;10.13;5.20;;;;;;;2.79;70.30;100031.24;114226;1193;64372;-82
2021/04/13 05:08:26;;;;;;;11.27;5.50;;;;;;;2.87;70.52;100037.22;114302;1192;64362;-79
2021/04/13 05:10:53;;;;;;;10.13;4.40;;;;;;;2.99;70.03;100044.83;114283;1193;64442;-83
2021/04/13 05:13:21;;;;;;;14.47;5.33;;;;;;;3.07;69.96;100050.77;114301;1193;64374;-80
2021/04/13 05:15:49;;;;;;;11.40;5.25;;;;;;;3.13;70.21;100047.11;114290;1193;64302;-79
2021/04/13 05:18:16;;;;;;;9.97;4.90;;;;;;;3.16;70.16;100042.59;114476;1193;64519;-79
2021/04/13 05:20:43;;;;;;;11.60;5.53;;;;;;;3.15;69.80;100034.73;114215;1193;64455;-81
2021/04/13 05:23:10;;;;;;;15.77;5.07;;;;;;;3.15;69.74;100040.87;114236;1193;64394;-81
2021/04/13 05:25:37;;;;;;;13.40;5.40;;;;;;;3.16;69.91;100049.66;114317;1193;64426;-83
2021/04/13 05:28:05;;;;;;;9.03;5.07;;;;;;;3.17;69.87;100051.38;114297;1193;64435;-81
2021/04/13 05:30:33;;;;;;;11.00;6.00;;;;;;;3.18;69.71;100047.83;114298;1192;64340;-82
2021/04/13 05:33:00;;;;;;;18.35;5.15;;;;;;;3.17;69.72;100046.96;114237;1193;64378;-80
2021/04/13 05:35:27;;;;;;;19.25;5.20;;;;;;;3.20;69.68;100048.67;114272;1193;64401;-81
2021/04/13 05:37:57;;;;;;;11.45;4.90;;;;;;;3.22;70.05;100052.13;114251;1193;64378;-80
2021/04/13 05:40:31;;;;;;;10.20;5.23;;;;;;;3.26;69.93;100056.44;114269;1193;64525;-81
2021/04/13 05:42:59;;;;;;;14.57;4.97;;;;;;;3.30;69.88;100058.06;114341;1193;64826;-85
2021/04/13 05:45:29;;;;;;;9.15;5.55;;;;;;;3.27;70.06;100055.52;114229;1193;64365;-79
2021/04/13 05:47:58;;;;;;;8.37;5.00;;;;;;;3.25;70.17;100070.55;114334;1193;64384;-83
2021/04/13 05:50:29;;;;;;;13.20;5.10;;;;;;;3.17;69.92;100075.13;114329;1193;64359;-84
2021/04/13 05:52:56;;;;;;;12.63;5.77;;;;;;;3.10;70.16;100068.28;114290;1193;64336;-83
2021/04/13 05:55:23;;;;;;;11.15;5.55;;;;;;;3.10;70.02;100073.56;114253;1193;64451;-81
2021/04/13 05:57:54;;;;;;;8.50;5.80;;;;;;;3.13;70.11;100081.42;114213;1193;64423;-81
2021/04/13 06:00:24;;;;;;;18.50;7.45;;;;;;;3.15;69.69;100084.88;114507;1193;64333;-81
2021/04/13 06:02:53;;;;;;;18.05;7.60;;;;;;;3.09;69.84;100092.95;114343;1193;64363;-81
2021/04/13 06:05:23;;;;;;;13.93;7.43;;;;;;;3.12;70.30;100092.89;114380;1193;64471;-83
2021/04/13 06:07:51;;;;;;;16.17;7.23;;;;;;;3.18;69.89;100098.88;114291;1193;64302;-81
2021/04/13 06:10:18;;;;;;;13.30;6.60;;;;;;;3.22;69.96;100089.95;114316;1193;64371;-83
2021/04/13 06:12:51;;;;;;;13.27;7.27;;;;;;;3.31;70.16;100099.43;114303;1193;64395;-79
2021/04/13 06:15:20;;;;;;;10.57;5.30;;;;;;;3.45;69.85;100101.70;114410;1192;64448;-82
2021/04/13 06:17:47;;;;;;;15.17;7.13;;;;;;;3.52;69.58;100095.34;114371;1193;64362;-83
2021/04/13 06:20:16;;;;;;;57.07;34.13;;;;;;;3.60;69.49;100097.78;114299;1192;64387;-80
2021/04/13 06:22:45;;;;;;;18.80;6.93;;;;;;;3.70;69.29;100096.63;114367;1193;64426;-77
2021/04/13 06:25:14;;;;;;;14.30;6.50;;;;;;;3.80;69.30;100106.88;114402;1193;64436;-81
2021/04/13 06:27:44;;;;;;;9.60;5.73;;;;;;;3.87;69.42;100097.00;114225;1193;64404;-81
2021/04/13 06:30:16;;;;;;;12.00;6.00;;;;;;;3.91;69.18;100101.30;114249;1193;64372;-80
2021/04/13 06:32:43;;;;;;;12.30;5.95;;;;;;;3.90;69.45;100094.30;114325;1193;64475;-80
2021/04/13 06:35:10;;;;;;;16.50;6.30;;;;;;;3.94;69.24;100095.91;114344;1193;64420;-81
2021/04/13 06:37:42;;;;;;;15.60;7.45;;;;;;;4.06;69.17;100100.85;114292;1193;64302;-81
2021/04/13 06:40:35;;;;;;;11.95;5.60;;;;;;;4.21;69.03;100093.41;114298;1193;64449;-83
2021/04/13 06:43:11;;;;;;;10.07;5.00;;;;;;;4.42;69.00;100097.18;114409;1193;64349;-79
2021/04/13 06:45:37;;;;;;;11.90;5.50;;;;;;;4.59;68.80;100098.41;114239;1192;64423;-81
2021/04/13 06:48:23;;;;;;;13.70;6.60;;;;;;;4.77;68.48;100107.55;114273;1193;64292;-80
2021/04/13 06:51:26;;;;;;;9.63;6.10;;;;;;;4.92;68.47;100100.89;114371;1193;64426;-80
2021/04/13 06:54:02;;;;;;;12.77;5.60;;;;;;;5.14;68.74;100088.66;114344;1193;64314;-81
2021/04/13 06:56:41;;;;;;;13.00;5.70;;;;;;;5.30;68.19;100082.86;114269;1193;64398;-80
2021/04/13 06:59:31;;;;;;;14.00;5.77;;;;;;;5.54;68.06;100075.86;114283;1193;64521;-82
2021/04/13 07:02:17;;;;;;;12.10;5.77;;;;;;;5.72;67.45;100084.91;114264;1193;64456;-83
2021/04/13 07:05:28;;;;;;;13.63;5.77;;;;;;;5.82;67.50;100091.63;114397;1192;64359;-79
2021/04/13 07:08:17;;;;;;;13.07;4.97;;;;;;;5.85;67.09;100092.39;114296;1193;64401;-80
2021/04/13 07:10:53;;;;;;;18.50;6.80;;;;;;;5.86;67.20;100095.91;114284;1192;64368;-78
2021/04/13 07:13:34;;;;;;;8.85;5.05;;;;;;;6.10;67.99;100091.50;114302;1193;64416;-80
2021/04/13 07:16:42;;;;;;;8.50;5.27;;;;;;;6.40;67.01;100093.00;114363;1193;64858;-78
2021/04/13 07:19:41;;;;;;;6.47;4.27;;;;;;;6.52;66.23;100091.66;114265;1193;64372;-84
2021/04/13 07:22:20;;;;;;;15.73;5.60;;;;;;;6.50;67.66;100089.08;114356;1193;64375;-84
2021/04/13 07:24:57;;;;;;;10.60;5.30;;;;;;;6.63;66.96;100097.42;114325;1192;64288;-81
2021/04/13 07:27:41;;;;;;;10.10;6.40;;;;;;;6.56;66.91;100095.94;114252;1193;64909;-82
2021/04/13 07:30:11;;;;;;;12.65;5.95;;;;;;;6.50;66.60;100088.22;114251;1193;64445;-85
2021/04/13 07:32:39;;;;;;;10.80;5.20;;;;;;;6.43;66.70;100090.25;114501;1193;64579;-79
2021/04/13 07:35:12;;;;;;;15.57;5.77;;;;;;;6.42;66.87;100096.45;114401;1193;64368;-80
2021/04/13 07:37:43;;;;;;;12.47;6.30;;;;;;;6.38;66.78;100091.34;114392;1193;64471;-80
2021/04/13 07:40:27;;;;;;;9.00;4.50;;;;;;;6.39;66.47;100098.38;114315;1193;64484;-80
2021/04/13 07:43:09;;;;;;;11.47;5.33;;;;;;;6.38;66.97;100097.52;114277;1192;64436;-80
2021/04/13 07:46:01;;;;;;;7.57;5.00;;;;;;;6.37;66.30;100106.39;114326;1192;64397;-79
2021/04/13 07:48:31;;;;;;;13.70;5.60;;;;;;;6.39;66.71;100103.68;114347;1193;64343;-77
2021/04/13 07:51:15;;;;;;;12.40;6.30;;;;;;;6.38;65.83;100104.61;114314;1193;64295;-81
2021/04/13 07:54:36;;;;;;;13.37;5.00;;;;;;;6.27;65.86;100106.80;114386;1193;64509;-80
2021/04/13 07:57:11;;;;;;;9.60;4.80;;;;;;;6.40;66.32;100108.06;114281;1193;64452;-80
2021/04/13 07:59:54;;;;;;;9.85;4.60;;;;;;;6.42;65.89;100111.50;114372;1193;64304;-79
2021/04/13 08:02:23;;;;;;;13.17;5.33;;;;;;;6.43;67.17;100107.95;114279;1192;64378;-80
2021/04/13 08:04:51;;;;;;;8.70;4.70;;;;;;;6.67;66.67;100106.97;114518;1193;64381;-77
2021/04/13 08:07:31;;;;;;;12.37;5.00;;;;;;;6.90;66.10;100107.86;114302;1193;64484;-83
2021/04/13 08:10:10;;;;;;;10.60;5.00;;;;;;;7.02;66.12;100110.03;114298;1191;64432;-80
2021/04/13 08:12:52;;;;;;;10.50;5.33;;;;;;;7.01;65.56;100106.51;114304;1193;64455;-81
2021/04/13 08:15:41;;;;;;;8.85;5.05;;;;;;;7.15;65.97;100110.39;114268;1193;64366;-82
2021/04/13 08:18:41;;;;;;;7.20;4.07;;;;;;;7.36;65.96;100109.48;114347;1193;64426;-83
2021/04/13 08:21:38;;;;;;;8.45;4.65;;;;;;;7.43;64.98;100102.11;114302;1193;64449;-83
2021/04/13 08:24:05;;;;;;;7.97;4.60;;;;;;;7.51;64.81;100100.88;114268;1193;64365;-80
2021/04/13 08:26:40;;;;;;;7.20;4.10;;;;;;;7.46;64.75;100099.34;114377;1193;64304;-78
2021/04/13 08:29:23;;;;;;;8.00;4.10;;;;;;;7.58;64.59;100093.50;114407;1193;64368;-83
2021/04/13 08:35:37;;;;;;;8.23;4.30;;;;;;;7.83;64.58;100096.81;114464;1193;64353;-78
2021/04/13 08:38:19;;;;;;;;;;;;;;;8.00;64.67;100097.84;114202;1203;64414;-78
2021/04/13 08:41:24;;;;;;;6.10;3.60;;;;;;;8.09;65.54;100097.45;116703;1196;64497;-78
2021/04/13 08:44:35;;;;;;;5.45;4.15;;;;;;;8.30;64.66;100096.45;114164;1196;64443;-78
2021/04/13 08:47:08;;;;;;;8.10;4.00;;;;;;;8.15;64.60;100094.51;114117;1196;64528;-80
2021/04/13 08:49:48;;;;;;;8.15;3.60;;;;;;;8.27;64.68;100093.95;114076;1196;65383;-78
2021/04/13 08:52:44;;;;;;;6.20;3.20;;;;;;;8.41;64.55;100092.48;114190;1196;64381;-78
2021/04/13 08:55:29;;;;;;;5.95;4.00;;;;;;;8.34;63.74;100106.03;113969;1197;64449;-79
2021/04/13 08:58:40;;;;;;;6.60;4.55;;;;;;;8.09;63.25;100105.42;114127;1196;64362;-79
2021/04/13 09:01:31;;;;;;;6.77;3.77;;;;;;;8.02;64.36;100110.16;114111;1196;64420;-78
2021/04/13 09:04:00;;;;;;;6.70;3.20;;;;;;;8.01;64.20;100103.09;114042;1196;64558;-78
2021/04/13 09:06:29;;;;;;;8.33;3.60;;;;;;;8.25;65.02;100102.92;114150;1196;64538;-81
2021/04/13 09:09:18;;;;;;;13.20;4.10;;;;;;;8.53;64.02;100105.22;114065;1197;64515;-79
2021/04/13 09:12:09;;;;;;;5.07;3.77;;;;;;;8.51;63.45;100097.27;114082;1196;64378;-78
2021/04/13 09:14:57;;;;;;;9.07;5.60;;;;;;;8.40;62.67;100096.94;114183;1193;64637;-78
2021/04/13 09:17:28;;;;;;;16.97;6.97;;;;;;;8.37;62.79;100102.38;114294;1193;64493;-78
2021/04/13 09:20:05;;;;;;;18.10;8.23;;;;;;;8.46;64.11;100098.42;114404;1193;64353;-80
2021/04/13 09:22:48;;;;;;;13.57;7.17;;;;;;;8.75;63.08;100091.73;114326;1193;64468;-79
2021/04/13 09:25:49;;;;;;;7.77;5.00;;;;;;;9.05;63.94;100106.23;114365;1192;64362;-84
2021/04/13 09:28:23;;;;;;;6.30;3.35;;;;;;;9.11;63.19;100103.27;114324;1193;64356;-78
2021/04/13 09:31:00;;;;;;;10.70;5.30;;;;;;;9.23;63.14;100104.46;114448;1192;64510;-81
2021/04/13 09:33:42;;;;;;;11.30;4.80;;;;;;;9.17;63.14;100102.10;114454;1193;64384;-81
2021/04/13 09:36:28;;;;;;;10.93;5.57;;;;;;;9.24;63.07;100098.19;114343;1193;64423;-79
2021/04/13 09:39:06;;;;;;;12.80;5.20;;;;;;;9.08;63.12;100094.55;114340;1193;65782;-79
2021/04/13 09:41:45;;;;;;;9.15;4.35;;;;;;;9.08;63.58;100086.55;114388;1193;64461;-78
2021/04/13 09:44:18;;;;;;;6.50;5.20;;;;;;;9.14;62.76;100091.58;114610;1193;64362;-79
2021/04/13 09:47:30;;;;;;;7.93;4.87;;;;;;;8.99;62.53;100095.88;114619;1193;64551;-80
2021/04/13 09:50:19;;;;;;;7.30;4.40;;;;;;;8.83;63.93;100095.73;114486;1193;64301;-78
2021/04/13 09:53:01;;;;;;;6.30;4.30;;;;;;;8.63;63.14;100098.50;114502;1193;64330;-79
2021/04/13 09:56:08;;;;;;;5.43;4.03;;;;;;;8.62;63.61;100102.10;114446;1193;64474;-80
2021/04/13 09:58:52;;;;;;;8.93;4.50;;;;;;;8.46;63.45;100098.42;114551;1193;64317;-80
2021/04/13 10:01:40;;;;;;;5.57;3.60;;;;;;;8.43;62.88;100094.12;114550;1193;64327;-80
2021/04/13 10:04:33;;;;;;;4.37;3.47;;;;;;;8.44;62.97;100093.17;114451;1193;64343;-82
2021/04/13 10:07:24;;;;;;;8.65;5.65;;;;;;;8.51;61.52;100085.77;114765;1193;64286;-80
2021/04/13 10:09:59;;;;;;;4.53;3.67;;;;;;;8.70;63.57;100091.08;114522;1193;64391;-80
2021/04/13 10:12:56;;;;;;;9.13;5.70;;;;;;;8.98;63.33;100087.96;114507;1193;64522;-80
2021/04/13 10:16:03;;;;;;;6.85;3.80;;;;;;;9.23;62.77;100077.81;114534;1193;64445;-80
2021/04/13 10:18:57;;;;;;;9.05;4.20;;;;;;;9.25;61.99;100083.91;114305;1193;64353;-79
2021/04/13 10:22:02;;;;;;;12.87;8.00;;;;;;;8.94;61.87;100087.23;114220;1193;64403;-80
2021/04/13 10:24:41;;;;;;;11.90;5.07;;;;;;;8.91;61.57;100080.27;114363;1193;64369;-83
2021/04/13 10:27:41;;;;;;;8.47;4.70;;;;;;;9.03;60.74;100077.91;114354;1193;64542;-83
2021/04/13 10:30:33;;;;;;;6.23;3.80;;;;;;;9.01;61.99;100077.14;114333;1193;64301;-77
2021/04/13 10:33:10;;;;;;;8.60;3.90;;;;;;;9.13;62.25;100079.20;114288;1193;64382;-80
2021/04/13 10:35:55;;;;;;;4.20;3.20;;;;;;;9.34;61.21;100069.25;114325;1193;65558;-78
2021/04/13 10:38:43;;;;;;;9.05;3.80;;;;;;;9.32;59.62;100060.48;114365;1193;64337;-79
2021/04/13 10:41:51;;;;;;;6.40;3.30;;;;;;;9.36;61.34;100064.72;114339;1192;64350;-78
2021/04/13 10:44:52;;;;;;;6.10;3.40;;;;;;;9.65;59.75;100060.53;114421;1193;64352;-81
2021/04/13 10:47:47;;;;;;;11.20;5.40;;;;;;;9.59;60.31;100059.05;114534;1193;64468;-81
2021/04/13 10:50:36;;;;;;;12.53;5.57;;;;;;;9.64;60.50;100058.81;114503;1193;64364;-82
2021/04/13 10:53:41;;;;;;;10.00;3.93;;;;;;;9.99;59.12;100044.48;114359;1193;64407;-78
2021/04/13 10:56:27;;;;;;;38.50;13.20;;;;;;;9.97;61.07;100054.35;114442;1193;64394;-78
2021/04/13 10:59:23;;;;;;;27.53;9.68;;;;;;;10.35;61.10;100046.09;114243;1192;64333;-78
2021/04/13 11:02:32;;;;;;;18.90;8.27;;;;;;;10.57;60.56;100052.93;114218;1193;64336;-81
2021/04/13 11:05:08;;;;;;;18.15;8.40;;;;;;;10.37;60.94;100044.23;114055;1196;64352;-77
2021/04/13 11:07:41;;;;;;;4.83;3.97;;;;;;;10.27;58.69;100040.33;114105;1196;64462;-80
2021/04/13 11:10:17;;;;;;;15.67;6.90;;;;;;;10.14;59.57;100041.91;114064;1196;64506;-79
2021/04/13 11:12:56;;;;;;;6.53;4.50;;;;;;;10.39;61.27;100042.32;114044;1196;64567;-79
2021/04/13 11:15:38;;;;;;;21.85;11.65;;;;;;;10.90;61.08;100040.31;113997;1196;64704;-79
2021/04/13 11:18:30;;;;;;;11.60;6.35;;;;;;;11.01;60.00;100032.55;114094;1196;64215;-80
2021/04/13 11:21:24;;;;;;;34.75;21.20;;;;;;;10.74;58.89;100031.44;114036;1196;64487;-79
2021/04/13 11:24:18;;;;;;;27.65;16.10;;;;;;;10.51;59.05;100028.28;114070;1196;64529;-79
2021/04/13 11:26:54;;;;;;;20.10;11.50;;;;;;;10.63;58.99;100024.06;114045;1196;64295;-77
2021/04/13 11:30:10;;;;;;;14.40;9.30;;;;;;;10.58;59.30;100019.92;114118;1195;64372;-79
2021/04/13 11:32:48;;;;;;;5.50;4.70;;;;;;;10.22;59.42;100024.52;113767;1200;64391;-84
2021/04/13 11:35:21;;;;;;;11.70;6.10;;;;;;;10.18;60.34;100016.76;113737;1200;64655;-80
2021/04/13 11:38:09;;;;;;;11.70;6.00;;;;;;;10.21;60.30;100019.27;113751;1200;64518;-78
2021/04/13 11:40:38;;;;;;;13.30;6.60;;;;;;;10.64;60.55;100025.78;113743;1199;64327;-78
2021/04/13 11:43:12;;;;;;;15.10;7.47;;;;;;;11.03;59.82;100025.28;113992;1197;64813;-80
2021/04/13 11:45:56;;;;;;;9.80;5.23;;;;;;;11.08;58.83;100015.19;114103;1196;64522;-82
2021/04/13 11:49:15;;;;;;;23.50;13.10;;;;;;;10.76;59.09;100024.22;114136;1196;64410;-76
2021/04/13 11:51:51;;;;;;;7.05;4.50;;;;;;;11.14;59.68;100018.46;114126;1200;64551;-79
2021/04/13 11:54:40;;;;;;;4.80;3.50;;;;;;;11.59;59.54;100002.31;114044;1198;64443;-79
2021/04/13 11:57:33;;;;;;;7.50;4.55;;;;;;;11.64;58.67;100000.23;113848;1199;64518;-79
2021/04/13 12:00:19;;;;;;;6.20;4.00;;;;;;;11.26;57.89;99994.53;113899;1199;64305;-80
2021/04/13 12:03:00;;;;;;;43.65;23.00;;;;;;;11.28;58.51;99999.77;113866;1200;64394;-77
2021/04/13 12:05:33;;;;;;;10.20;6.00;;;;;;;11.23;58.03;99993.84;113812;1199;64374;-78
2021/04/13 12:08:02;;;;;;;44.70;21.00;;;;;;;11.06;58.31;99984.14;113821;1196;64491;-80
2021/04/13 12:10:35;;;;;;;10.55;5.70;;;;;;;10.92;57.50;99984.09;114203;1196;64576;-83
2021/04/13 12:13:05;;;;;;;21.90;9.70;;;;;;;11.06;58.60;99984.99;114020;1196;64494;-78
2021/04/13 12:15:37;;;;;;;4.30;3.40;;;;;;;11.14;56.69;99981.03;114187;1196;64413;-80
2021/04/13 12:18:35;;;;;;;15.10;7.30;;;;;;;10.95;56.74;99975.91;114088;1196;64394;-78
2021/04/13 12:21:22;;;;;;;6.95;4.30;;;;;;;10.62;57.27;99982.25;114135;1196;64522;-79